PAGY/SGY METAR and TAF weather

Enter ICAO airport designator
Station Type Date Time Source
PAGY METAR 2021/01/27 15:53 UTC NOAA

PAGY 271553Z AUTO 02017G31KT 10SM CLR M08/M21 A3025 RMK AO2 PK WND 03033/1535 SLP245 T10831206 TSNO $


Station Type Date Time Source
PAGY Decoded METAR 2021/01/27 15:53 UTC NOAA

SKAGWAY AIRPORT, AK, United States (PAGY) 59-28N 135-19W 5M
Jan 27, 2021 - 10:53 AM EST / 2021.01.27 1553 UTC
Wind: from the NNE (020 degrees) at 20 MPH (17 KT) gusting to 36 MPH (31 KT):0
Visibility: 10 mile(s):0
Sky conditions: clear
Temperature: 17.1 F (-8.3 C)
Windchill: 0 F (-18 C):1
Dew Point: -5.1 F (-20.6 C)
Relative Humidity: 36%
Pressure (altimeter): 30.25 in. Hg (1024 hPa)
ob: PAGY 271553Z AUTO 02017G31KT 10SM CLR M08/M21 A3025 RMK AO2 PK WND 03033/1535 SLP245 T10831206 TSNO
cycle: 16

Station Type Date Time Source
PAGY TAF 2021/02/26 18:39 UTC NOAA

TAF PAGY 261736Z 2618/2718 14009KT P6SM SKC
FM270800 19010KT P6SM VCSH OVC050
FM271200 17012KT 6SM -SHSN SCT025 OVC040
AMD NOT SKED

Example: see airport list